sensor_id;sensor_type;location;lat;lon;timestamp;P1;durP1;ratioP1;P2;durP2;ratioP2
41139;SDS011;26881;48.784;9.192;2024-03-23T00:56:10;13.38;;;6.60;;
41139;SDS011;26881;48.784;9.192;2024-03-23T01:01:31;9.52;;;6.40;;
41139;SDS011;26881;48.784;9.192;2024-03-23T01:06:52;10.35;;;6.88;;
41139;SDS011;26881;48.784;9.192;2024-03-23T01:12:13;8.90;;;6.47;;
41139;SDS011;26881;48.784;9.192;2024-03-23T01:17:34;11.55;;;6.70;;
41139;SDS011;26881;48.784;9.192;2024-03-23T01:22:55;8.93;;;5.68;;
41139;SDS011;26881;48.784;9.192;2024-03-23T01:28:16;5.05;;;3.40;;
41139;SDS011;26881;48.784;9.192;2024-03-23T01:33:36;6.00;;;3.65;;
41139;SDS011;26881;48.784;9.192;2024-03-23T01:38:57;3.05;;;2.67;;
41139;SDS011;26881;48.784;9.192;2024-03-23T01:44:18;3.53;;;2.25;;
41139;SDS011;26881;48.784;9.192;2024-03-23T01:49:39;3.25;;;2.03;;
41139;SDS011;26881;48.784;9.192;2024-03-23T01:55:00;2.78;;;1.98;;
41139;SDS011;26881;48.784;9.192;2024-03-23T02:00:21;3.63;;;2.10;;
41139;SDS011;26881;48.784;9.192;2024-03-23T02:05:43;6.63;;;2.00;;
41139;SDS011;26881;48.784;9.192;2024-03-23T02:11:04;3.55;;;2.05;;
41139;SDS011;26881;48.784;9.192;2024-03-23T02:16:25;3.60;;;2.00;;
41139;SDS011;26881;48.784;9.192;2024-03-23T02:21:46;2.55;;;2.03;;
41139;SDS011;26881;48.784;9.192;2024-03-23T02:27:08;3.13;;;1.92;;
41139;SDS011;26881;48.784;9.192;2024-03-23T02:32:29;4.63;;;2.38;;
41139;SDS011;26881;48.784;9.192;2024-03-23T02:37:50;3.53;;;2.03;;
41139;SDS011;26881;48.784;9.192;2024-03-23T02:43:11;3.80;;;2.13;;
41139;SDS011;26881;48.784;9.192;2024-03-23T02:48:32;2.72;;;2.30;;
41139;SDS011;26881;48.784;9.192;2024-03-23T02:53:54;6.88;;;2.70;;
41139;SDS011;26881;48.784;9.192;2024-03-23T02:59:14;5.50;;;2.30;;
41139;SDS011;26881;48.784;9.192;2024-03-23T03:04:35;3.67;;;2.13;;
41139;SDS011;26881;48.784;9.192;2024-03-23T03:09:56;4.82;;;2.08;;
41139;SDS011;26881;48.784;9.192;2024-03-23T03:15:17;3.17;;;2.28;;
41139;SDS011;26881;48.784;9.192;2024-03-23T03:20:39;2.63;;;1.80;;
41139;SDS011;26881;48.784;9.192;2024-03-23T03:26:00;3.22;;;2.20;;
41139;SDS011;26881;48.784;9.192;2024-03-23T03:31:21;3.72;;;2.65;;
41139;SDS011;26881;48.784;9.192;2024-03-23T03:36:42;5.68;;;2.28;;
41139;SDS011;26881;48.784;9.192;2024-03-23T03:42:03;4.57;;;2.30;;
41139;SDS011;26881;48.784;9.192;2024-03-23T03:47:27;3.88;;;2.20;;
41139;SDS011;26881;48.784;9.192;2024-03-23T03:52:48;4.75;;;2.10;;
41139;SDS011;26881;48.784;9.192;2024-03-23T03:58:09;4.53;;;2.20;;
41139;SDS011;26881;48.784;9.192;2024-03-23T04:03:29;3.90;;;2.42;;
41139;SDS011;26881;48.784;9.192;2024-03-23T04:08:50;5.07;;;2.55;;
41139;SDS011;26881;48.784;9.192;2024-03-23T04:14:11;3.33;;;2.28;;
41139;SDS011;26881;48.784;9.192;2024-03-23T04:19:32;5.70;;;2.45;;
41139;SDS011;26881;48.784;9.192;2024-03-23T04:24:53;2.70;;;2.25;;
41139;SDS011;26881;48.784;9.192;2024-03-23T04:30:15;3.42;;;2.40;;
41139;SDS011;26881;48.784;9.192;2024-03-23T04:35:36;4.88;;;2.60;;
41139;SDS011;26881;48.784;9.192;2024-03-23T04:40:58;3.58;;;2.10;;
41139;SDS011;26881;48.784;9.192;2024-03-23T04:46:20;7.32;;;2.63;;
41139;SDS011;26881;48.784;9.192;2024-03-23T04:51:41;4.35;;;2.67;;
41139;SDS011;26881;48.784;9.192;2024-03-23T04:57:06;3.47;;;3.17;;
41139;SDS011;26881;48.784;9.192;2024-03-23T05:02:27;5.68;;;3.97;;
41139;SDS011;26881;48.784;9.192;2024-03-23T05:07:48;10.35;;;6.68;;
41139;SDS011;26881;48.784;9.192;2024-03-23T05:13:09;11.23;;;7.25;;
41139;SDS011;26881;48.784;9.192;2024-03-23T05:18:30;10.95;;;8.18;;
41139;SDS011;26881;48.784;9.192;2024-03-23T05:23:53;12.70;;;8.95;;
41139;SDS011;26881;48.784;9.192;2024-03-23T05:29:14;15.10;;;11.67;;
41139;SDS011;26881;48.784;9.192;2024-03-23T05:34:37;16.15;;;12.77;;
41139;SDS011;26881;48.784;9.192;2024-03-23T05:39:58;15.10;;;13.05;;
41139;SDS011;26881;48.784;9.192;2024-03-23T05:45:19;15.70;;;14.07;;
41139;SDS011;26881;48.784;9.192;2024-03-23T05:50:40;17.42;;;13.57;;
41139;SDS011;26881;48.784;9.192;2024-03-23T05:56:02;16.48;;;12.35;;
41139;SDS011;26881;48.784;9.192;2024-03-23T06:01:27;11.80;;;10.00;;
41139;SDS011;26881;48.784;9.192;2024-03-23T06:06:50;6.45;;;5.20;;
41139;SDS011;26881;48.784;9.192;2024-03-23T06:12:12;5.30;;;4.65;;
41139;SDS011;26881;48.784;9.192;2024-03-23T06:17:33;6.85;;;4.97;;
41139;SDS011;26881;48.784;9.192;2024-03-23T06:22:55;5.22;;;3.80;;
41139;SDS011;26881;48.784;9.192;2024-03-23T06:28:40;6.15;;;3.45;;
41139;SDS011;26881;48.784;9.192;2024-03-23T06:34:02;2.97;;;2.70;;
41139;SDS011;26881;48.784;9.192;2024-03-23T06:39:23;2.30;;;2.10;;
41139;SDS011;26881;48.784;9.192;2024-03-23T06:44:44;2.30;;;1.67;;
41139;SDS011;26881;48.784;9.192;2024-03-23T06:50:05;2.13;;;1.60;;
41139;SDS011;26881;48.784;9.192;2024-03-23T06:55:26;0.93;;;0.93;;
41139;SDS011;26881;48.784;9.192;2024-03-23T07:00:47;1.08;;;0.88;;
41139;SDS011;26881;48.784;9.192;2024-03-23T07:06:09;0.80;;;0.80;;
41139;SDS011;26881;48.784;9.192;2024-03-23T07:11:31;0.47;;;0.47;;
41139;SDS011;26881;48.784;9.192;2024-03-23T07:16:52;0.60;;;0.60;;
41139;SDS011;26881;48.784;9.192;2024-03-23T07:22:12;0.52;;;0.52;;
41139;SDS011;26881;48.784;9.192;2024-03-23T07:27:33;1.30;;;0.52;;
41139;SDS011;26881;48.784;9.192;2024-03-23T07:32:54;1.35;;;0.50;;
41139;SDS011;26881;48.784;9.192;2024-03-23T07:38:15;2.20;;;0.30;;
41139;SDS011;26881;48.784;9.192;2024-03-23T07:43:39;0.55;;;0.40;;
41139;SDS011;26881;48.784;9.192;2024-03-23T07:49:04;0.43;;;0.40;;
41139;SDS011;26881;48.784;9.192;2024-03-23T07:54:25;0.50;;;0.50;;
41139;SDS011;26881;48.784;9.192;2024-03-23T07:59:46;0.40;;;0.40;;
41139;SDS011;26881;48.784;9.192;2024-03-23T08:05:07;1.83;;;0.50;;
41139;SDS011;26881;48.784;9.192;2024-03-23T08:10:28;0.50;;;0.50;;
41139;SDS011;26881;48.784;9.192;2024-03-23T08:15:49;0.60;;;0.60;;
41139;SDS011;26881;48.784;9.192;2024-03-23T08:21:10;0.70;;;0.70;;
41139;SDS011;26881;48.784;9.192;2024-03-23T08:26:31;1.35;;;0.80;;
41139;SDS011;26881;48.784;9.192;2024-03-23T08:31:52;0.70;;;0.70;;
41139;SDS011;26881;48.784;9.192;2024-03-23T08:37:13;0.73;;;0.73;;
41139;SDS011;26881;48.784;9.192;2024-03-23T08:42:34;0.77;;;0.63;;
41139;SDS011;26881;48.784;9.192;2024-03-23T08:47:55;1.35;;;0.70;;
41139;SDS011;26881;48.784;9.192;2024-03-23T08:53:16;0.75;;;0.70;;
41139;SDS011;26881;48.784;9.192;2024-03-23T08:58:37;1.05;;;0.80;;
41139;SDS011;26881;48.784;9.192;2024-03-23T09:03:59;3.83;;;1.52;;
41139;SDS011;26881;48.784;9.192;2024-03-23T09:09:20;5.97;;;1.60;;
41139;SDS011;26881;48.784;9.192;2024-03-23T09:14:41;7.70;;;1.80;;
41139;SDS011;26881;48.784;9.192;2024-03-23T09:20:02;5.20;;;1.92;;
41139;SDS011;26881;48.784;9.192;2024-03-23T09:25:24;4.60;;;1.90;;
41139;SDS011;26881;48.784;9.192;2024-03-23T09:30:45;5.47;;;2.10;;
41139;SDS011;26881;48.784;9.192;2024-03-23T09:36:06;4.32;;;2.15;;
41139;SDS011;26881;48.784;9.192;2024-03-23T09:41:27;4.35;;;1.90;;
41139;SDS011;26881;48.784;9.192;2024-03-23T09:46:48;7.28;;;2.63;;
41139;SDS011;26881;48.784;9.192;2024-03-23T09:52:09;9.40;;;2.90;;
41139;SDS011;26881;48.784;9.192;2024-03-23T09:57:31;9.73;;;2.97;;
41139;SDS011;26881;48.784;9.192;2024-03-23T10:02:54;9.30;;;3.17;;
41139;SDS011;26881;48.784;9.192;2024-03-23T10:13:36;8.05;;;3.80;;
41139;SDS011;26881;48.784;9.192;2024-03-23T10:19:05;9.00;;;3.72;;
41139;SDS011;26881;48.784;9.192;2024-03-23T10:24:27;8.20;;;2.80;;
41139;SDS011;26881;48.784;9.192;2024-03-23T10:29:48;6.45;;;2.60;;
41139;SDS011;26881;48.784;9.192;2024-03-23T10:35:19;5.68;;;2.50;;
41139;SDS011;26881;48.784;9.192;2024-03-23T10:40:43;11.90;;;2.80;;
41139;SDS011;26881;48.784;9.192;2024-03-23T10:46:05;5.88;;;2.70;;
41139;SDS011;26881;48.784;9.192;2024-03-23T10:51:26;10.80;;;3.47;;
41139;SDS011;26881;48.784;9.192;2024-03-23T10:56:47;9.25;;;3.20;;
41139;SDS011;26881;48.784;9.192;2024-03-23T11:02:21;7.63;;;3.08;;
41139;SDS011;26881;48.784;9.192;2024-03-23T11:07:49;6.20;;;3.17;;
41139;SDS011;26881;48.784;9.192;2024-03-23T11:13:23;5.97;;;2.37;;
41139;SDS011;26881;48.784;9.192;2024-03-23T11:18:44;2.87;;;1.90;;
41139;SDS011;26881;48.784;9.192;2024-03-23T11:24:14;6.15;;;2.10;;
41139;SDS011;26881;48.784;9.192;2024-03-23T11:29:35;2.13;;;1.70;;
41139;SDS011;26881;48.784;9.192;2024-03-23T11:34:56;5.32;;;2.13;;
41139;SDS011;26881;48.784;9.192;2024-03-23T11:40:17;7.10;;;2.50;;
41139;SDS011;26881;48.784;9.192;2024-03-23T11:45:40;3.42;;;2.00;;
41139;SDS011;26881;48.784;9.192;2024-03-23T11:51:03;4.43;;;1.80;;
41139;SDS011;26881;48.784;9.192;2024-03-23T11:56:24;4.97;;;1.80;;
41139;SDS011;26881;48.784;9.192;2024-03-23T12:01:45;4.75;;;1.70;;
41139;SDS011;26881;48.784;9.192;2024-03-23T12:07:10;5.15;;;1.95;;
41139;SDS011;26881;48.784;9.192;2024-03-23T12:12:31;4.72;;;1.48;;
41139;SDS011;26881;48.784;9.192;2024-03-23T12:17:52;5.20;;;1.70;;
41139;SDS011;26881;48.784;9.192;2024-03-23T12:23:26;6.68;;;1.77;;
41139;SDS011;26881;48.784;9.192;2024-03-23T12:28:47;4.65;;;1.52;;
41139;SDS011;26881;48.784;9.192;2024-03-23T12:34:08;7.18;;;2.28;;
41139;SDS011;26881;48.784;9.192;2024-03-23T12:39:29;7.38;;;1.70;;
41139;SDS011;26881;48.784;9.192;2024-03-23T12:44:50;7.90;;;2.17;;
41139;SDS011;26881;48.784;9.192;2024-03-23T12:50:11;6.35;;;2.13;;
41139;SDS011;26881;48.784;9.192;2024-03-23T12:55:35;10.98;;;2.30;;
41139;SDS011;26881;48.784;9.192;2024-03-23T13:00:57;9.00;;;2.67;;
41139;SDS011;26881;48.784;9.192;2024-03-23T13:06:19;8.55;;;1.98;;
41139;SDS011;26881;48.784;9.192;2024-03-23T13:11:40;7.85;;;2.20;;
41139;SDS011;26881;48.784;9.192;2024-03-23T13:17:01;4.78;;;1.83;;
41139;SDS011;26881;48.784;9.192;2024-03-23T13:22:23;5.18;;;2.00;;
41139;SDS011;26881;48.784;9.192;2024-03-23T13:27:44;7.32;;;2.25;;
41139;SDS011;26881;48.784;9.192;2024-03-23T13:33:05;8.38;;;2.40;;
41139;SDS011;26881;48.784;9.192;2024-03-23T13:38:26;8.75;;;2.40;;
41139;SDS011;26881;48.784;9.192;2024-03-23T13:43:47;4.93;;;1.80;;
41139;SDS011;26881;48.784;9.192;2024-03-23T13:49:08;3.67;;;1.63;;
41139;SDS011;26881;48.784;9.192;2024-03-23T13:54:44;8.60;;;1.95;;
41139;SDS011;26881;48.784;9.192;2024-03-23T14:00:07;9.38;;;1.70;;
41139;SDS011;26881;48.784;9.192;2024-03-23T14:05:28;7.82;;;1.90;;
41139;SDS011;26881;48.784;9.192;2024-03-23T14:10:49;3.55;;;1.50;;
41139;SDS011;26881;48.784;9.192;2024-03-23T14:16:12;4.63;;;1.83;;
41139;SDS011;26881;48.784;9.192;2024-03-23T14:21:33;6.65;;;1.88;;
41139;SDS011;26881;48.784;9.192;2024-03-23T14:26:55;5.90;;;1.67;;
41139;SDS011;26881;48.784;9.192;2024-03-23T14:32:17;5.37;;;1.13;;
41139;SDS011;26881;48.784;9.192;2024-03-23T14:37:38;3.07;;;1.50;;
41139;SDS011;26881;48.784;9.192;2024-03-23T14:42:59;1.08;;;0.73;;
41139;SDS011;26881;48.784;9.192;2024-03-23T14:48:20;1.80;;;1.02;;
41139;SDS011;26881;48.784;9.192;2024-03-23T14:53:45;1.65;;;0.95;;
41139;SDS011;26881;48.784;9.192;2024-03-23T14:59:06;4.15;;;1.35;;
41139;SDS011;26881;48.784;9.192;2024-03-23T15:04:28;4.32;;;1.02;;
41139;SDS011;26881;48.784;9.192;2024-03-23T15:09:49;3.10;;;1.00;;
41139;SDS011;26881;48.784;9.192;2024-03-23T15:15:10;2.90;;;1.08;;
41139;SDS011;26881;48.784;9.192;2024-03-23T15:20:31;6.18;;;1.45;;
41139;SDS011;26881;48.784;9.192;2024-03-23T15:25:55;4.13;;;1.20;;
41139;SDS011;26881;48.784;9.192;2024-03-23T15:31:16;3.35;;;1.10;;
41139;SDS011;26881;48.784;9.192;2024-03-23T15:36:37;2.33;;;1.08;;
41139;SDS011;26881;48.784;9.192;2024-03-23T15:42:01;2.78;;;1.02;;
41139;SDS011;26881;48.784;9.192;2024-03-23T15:47:24;3.05;;;1.15;;
41139;SDS011;26881;48.784;9.192;2024-03-23T15:52:45;3.43;;;1.37;;
41139;SDS011;26881;48.784;9.192;2024-03-23T15:58:10;1.50;;;0.93;;
41139;SDS011;26881;48.784;9.192;2024-03-23T16:03:32;4.00;;;1.10;;
41139;SDS011;26881;48.784;9.192;2024-03-23T16:08:53;5.40;;;1.20;;
41139;SDS011;26881;48.784;9.192;2024-03-23T16:14:14;2.75;;;0.85;;
41139;SDS011;26881;48.784;9.192;2024-03-23T16:19:35;2.40;;;1.20;;
41139;SDS011;26881;48.784;9.192;2024-03-23T16:24:56;2.67;;;0.90;;
41139;SDS011;26881;48.784;9.192;2024-03-23T16:30:17;2.58;;;0.90;;
41139;SDS011;26881;48.784;9.192;2024-03-23T16:35:39;1.10;;;0.70;;
41139;SDS011;26881;48.784;9.192;2024-03-23T16:41:00;1.38;;;0.80;;
41139;SDS011;26881;48.784;9.192;2024-03-23T16:46:21;2.87;;;1.10;;
41139;SDS011;26881;48.784;9.192;2024-03-23T16:51:43;0.80;;;0.80;;
41139;SDS011;26881;48.784;9.192;2024-03-23T16:57:04;2.60;;;1.20;;
41139;SDS011;26881;48.784;9.192;2024-03-23T17:02:25;6.37;;;3.50;;
41139;SDS011;26881;48.784;9.192;2024-03-23T17:07:46;3.92;;;1.50;;
41139;SDS011;26881;48.784;9.192;2024-03-23T17:13:06;5.53;;;1.17;;
41139;SDS011;26881;48.784;9.192;2024-03-23T17:18:28;1.85;;;1.20;;
41139;SDS011;26881;48.784;9.192;2024-03-23T17:23:49;1.90;;;1.10;;
41139;SDS011;26881;48.784;9.192;2024-03-23T17:29:14;3.15;;;1.30;;
41139;SDS011;26881;48.784;9.192;2024-03-23T17:34:35;3.27;;;1.60;;
41139;SDS011;26881;48.784;9.192;2024-03-23T17:39:56;2.93;;;1.07;;
41139;SDS011;26881;48.784;9.192;2024-03-23T17:45:17;3.03;;;1.17;;
41139;SDS011;26881;48.784;9.192;2024-03-23T17:50:39;2.13;;;1.40;;
41139;SDS011;26881;48.784;9.192;2024-03-23T17:56:02;2.30;;;1.23;;
41139;SDS011;26881;48.784;9.192;2024-03-23T18:01:24;3.20;;;1.27;;
41139;SDS011;26881;48.784;9.192;2024-03-23T18:06:45;1.90;;;1.40;;
41139;SDS011;26881;48.784;9.192;2024-03-23T18:12:07;7.07;;;1.30;;
41139;SDS011;26881;48.784;9.192;2024-03-23T18:17:28;2.90;;;1.43;;
41139;SDS011;26881;48.784;9.192;2024-03-23T18:22:49;2.83;;;1.40;;
41139;SDS011;26881;48.784;9.192;2024-03-23T18:28:10;3.83;;;1.97;;
41139;SDS011;26881;48.784;9.192;2024-03-23T18:33:35;3.07;;;2.20;;
41139;SDS011;26881;48.784;9.192;2024-03-23T18:38:58;3.23;;;1.60;;
41139;SDS011;26881;48.784;9.192;2024-03-23T18:44:22;4.97;;;1.60;;
41139;SDS011;26881;48.784;9.192;2024-03-23T18:49:43;4.40;;;1.90;;
41139;SDS011;26881;48.784;9.192;2024-03-23T18:55:04;4.00;;;2.07;;
41139;SDS011;26881;48.784;9.192;2024-03-23T19:00:25;4.87;;;2.43;;
41139;SDS011;26881;48.784;9.192;2024-03-23T19:05:51;4.30;;;2.20;;
41139;SDS011;26881;48.784;9.192;2024-03-23T19:11:13;5.03;;;2.10;;
41139;SDS011;26881;48.784;9.192;2024-03-23T19:16:34;2.33;;;1.47;;
41139;SDS011;26881;48.784;9.192;2024-03-23T19:21:55;4.33;;;1.53;;
41139;SDS011;26881;48.784;9.192;2024-03-23T19:27:16;2.57;;;1.40;;
41139;SDS011;26881;48.784;9.192;2024-03-23T19:32:37;2.40;;;1.70;;
41139;SDS011;26881;48.784;9.192;2024-03-23T19:37:58;3.20;;;1.90;;
41139;SDS011;26881;48.784;9.192;2024-03-23T19:43:18;6.30;;;2.60;;
41139;SDS011;26881;48.784;9.192;2024-03-23T19:48:39;3.50;;;2.10;;
41139;SDS011;26881;48.784;9.192;2024-03-23T19:54:00;8.10;;;2.43;;
41139;SDS011;26881;48.784;9.192;2024-03-23T19:59:21;8.67;;;2.70;;
41139;SDS011;26881;48.784;9.192;2024-03-23T20:04:42;5.73;;;2.50;;
41139;SDS011;26881;48.784;9.192;2024-03-23T20:10:04;7.57;;;2.37;;
41139;SDS011;26881;48.784;9.192;2024-03-23T20:15:25;5.33;;;2.20;;
41139;SDS011;26881;48.784;9.192;2024-03-23T20:20:47;5.07;;;1.93;;
41139;SDS011;26881;48.784;9.192;2024-03-23T20:26:10;4.10;;;1.70;;
41139;SDS011;26881;48.784;9.192;2024-03-23T20:31:31;3.00;;;2.00;;
41139;SDS011;26881;48.784;9.192;2024-03-23T20:36:52;3.17;;;1.67;;
41139;SDS011;26881;48.784;9.192;2024-03-23T20:42:13;3.70;;;1.90;;
41139;SDS011;26881;48.784;9.192;2024-03-23T20:47:35;3.93;;;1.97;;
41139;SDS011;26881;48.784;9.192;2024-03-23T20:52:59;2.50;;;1.60;;
41139;SDS011;26881;48.784;9.192;2024-03-23T20:58:23;1.77;;;1.27;;
41139;SDS011;26881;48.784;9.192;2024-03-23T21:03:45;4.30;;;1.77;;
41139;SDS011;26881;48.784;9.192;2024-03-23T21:09:06;2.53;;;1.47;;
41139;SDS011;26881;48.784;9.192;2024-03-23T21:14:28;2.17;;;1.27;;
41139;SDS011;26881;48.784;9.192;2024-03-23T21:19:49;2.67;;;1.40;;
41139;SDS011;26881;48.784;9.192;2024-03-23T21:25:10;4.20;;;1.23;;
41139;SDS011;26881;48.784;9.192;2024-03-23T21:30:32;2.37;;;1.23;;
41139;SDS011;26881;48.784;9.192;2024-03-23T21:35:57;3.60;;;1.20;;
41139;SDS011;26881;48.784;9.192;2024-03-23T21:41:18;3.17;;;1.40;;
41139;SDS011;26881;48.784;9.192;2024-03-23T21:46:39;2.83;;;1.53;;
41139;SDS011;26881;48.784;9.192;2024-03-23T21:52:03;4.63;;;1.67;;
41139;SDS011;26881;48.784;9.192;2024-03-23T21:57:24;5.13;;;1.80;;
41139;SDS011;26881;48.784;9.192;2024-03-23T22:02:45;2.97;;;1.43;;
41139;SDS011;26881;48.784;9.192;2024-03-23T22:08:06;4.50;;;2.13;;
41139;SDS011;26881;48.784;9.192;2024-03-23T22:13:28;2.37;;;1.57;;
41139;SDS011;26881;48.784;9.192;2024-03-23T22:18:49;1.60;;;1.40;;
41139;SDS011;26881;48.784;9.192;2024-03-23T22:24:12;2.83;;;1.57;;
41139;SDS011;26881;48.784;9.192;2024-03-23T22:29:33;4.63;;;1.60;;
41139;SDS011;26881;48.784;9.192;2024-03-23T22:34:54;4.30;;;1.67;;
41139;SDS011;26881;48.784;9.192;2024-03-23T22:40:15;6.80;;;1.40;;
41139;SDS011;26881;48.784;9.192;2024-03-23T22:45:36;5.00;;;1.50;;
41139;SDS011;26881;48.784;9.192;2024-03-23T22:50:58;3.87;;;1.50;;
41139;SDS011;26881;48.784;9.192;2024-03-23T22:56:20;2.43;;;1.40;;
41139;SDS011;26881;48.784;9.192;2024-03-23T23:01:41;2.67;;;1.43;;
41139;SDS011;26881;48.784;9.192;2024-03-23T23:07:02;1.67;;;1.10;;
41139;SDS011;26881;48.784;9.192;2024-03-23T23:12:24;2.03;;;1.13;;
41139;SDS011;26881;48.784;9.192;2024-03-23T23:17:45;2.87;;;1.47;;
41139;SDS011;26881;48.784;9.192;2024-03-23T23:23:06;1.67;;;1.43;;
41139;SDS011;26881;48.784;9.192;2024-03-23T23:28:27;4.10;;;1.20;;
41139;SDS011;26881;48.784;9.192;2024-03-23T23:33:48;1.57;;;1.10;;
41139;SDS011;26881;48.784;9.192;2024-03-23T23:39:09;2.20;;;1.00;;
41139;SDS011;26881;48.784;9.192;2024-03-23T23:44:30;2.37;;;1.30;;
41139;SDS011;26881;48.784;9.192;2024-03-23T23:49:51;2.93;;;1.10;;
41139;SDS011;26881;48.784;9.192;2024-03-23T23:55:12;2.00;;;0.93;;
